Weather at Sølenstua Airfield

Public forecast

Using degrees Celsius for public forecast. Weather courtesy of forecast.io.

Closest aviation weather report (METAR) to Sølenstua Airfield

Closest report is Røros Airport, 45.8 nm (84.9 km) NNW.

2024/07/24 01:50 (retrieved 24 minutes ago)

ENRO 240150Z AUTO 35005KT 9999 BKN006/// OVC016/// 09/08 Q1016

Closest aviation forecast (TAF) to Sølenstua Airfield

Forecast is more than 12 hours old.

Closest forecast is Quaqtaq Airport, 2,180.2 nm (4,037.7 km) NW.

2024/07/23 14:06 Ammendment (retrieved 12 hours ago)

TAF AMD TAF AMD CYHA 231403Z 2314/2321 29012KT 1/8SM FG VV002 TEMPO 2314/2318 3SM BR SCT002 OVC012 BECMG 2318/2320 P6SM NSW FEW008 SCT015 RMK NXT FCST BY 241400Z